createdAt,value
2017-06-03T00:00:27.497Z,22.77
2017-06-03T00:02:28.887Z,22.77
2017-06-03T00:04:30.398Z,22.75
2017-06-03T00:06:33.549Z,22.82
2017-06-03T00:08:36.791Z,22.75
2017-06-03T00:10:38.250Z,22.71
2017-06-03T00:12:40.163Z,22.72
2017-06-03T00:14:41.673Z,22.67
2017-06-03T00:16:43.706Z,22.64
2017-06-03T00:18:45.113Z,22.64
2017-06-03T00:20:46.613Z,22.47
2017-06-03T00:22:49.910Z,22.49
2017-06-03T00:24:51.311Z,22.50
2017-06-03T00:26:53.378Z,22.52
2017-06-03T00:28:54.869Z,22.39
2017-06-03T00:30:58.091Z,22.46
2017-06-03T00:32:59.532Z,22.41
2017-06-03T00:35:01.005Z,22.44
2017-06-03T00:37:02.470Z,22.38
2017-06-03T00:39:04.351Z,22.37
2017-06-03T00:41:05.852Z,22.44
2017-06-03T00:43:07.864Z,22.39
2017-06-03T00:45:09.774Z,22.41
2017-06-03T00:47:11.298Z,22.39
2017-06-03T00:49:14.586Z,22.31
2017-06-03T00:51:16.520Z,22.35
2017-06-03T00:53:19.739Z,22.28
2017-06-03T00:55:21.268Z,22.34
2017-06-03T00:57:22.732Z,22.38
2017-06-03T00:59:26.312Z,22.35
2017-06-03T01:01:28.291Z,22.38
2017-06-03T01:03:29.797Z,22.32
2017-06-03T01:05:32.955Z,22.31
2017-06-03T01:07:34.474Z,22.38
2017-06-03T01:09:36.419Z,22.41
2017-06-03T01:11:39.712Z,22.29
2017-06-03T01:13:42.316Z,22.35
2017-06-03T01:15:43.843Z,22.32
2017-06-03T01:17:45.321Z,22.32
2017-06-03T01:19:46.773Z,22.38
2017-06-03T01:21:48.260Z,22.39
2017-06-03T01:23:49.702Z,22.22
2017-06-03T01:25:51.173Z,22.27
2017-06-03T01:27:52.580Z,22.19
2017-06-03T01:29:54.021Z,22.29
2017-06-03T01:31:55.457Z,22.23
2017-06-03T01:33:57.458Z,22.29
2017-06-03T01:35:58.958Z,22.27
2017-06-03T01:38:00.457Z,22.27
2017-06-03T01:40:01.904Z,22.28
2017-06-03T01:42:03.343Z,22.22
2017-06-03T01:44:05.256Z,22.22
2017-06-03T01:46:08.512Z,22.25
2017-06-03T01:48:10.356Z,22.27
2017-06-03T01:50:12.416Z,22.31
2017-06-03T01:52:13.925Z,22.34
2017-06-03T01:54:17.044Z,22.29
2017-06-03T01:56:18.602Z,22.22
2017-06-03T01:58:20.493Z,22.23
2017-06-03T02:00:23.900Z,22.29
2017-06-03T02:02:26.914Z,22.20
2017-06-03T02:04:30.021Z,22.20
2017-06-03T02:06:31.534Z,22.07
2017-06-03T02:08:33.539Z,22.04
2017-06-03T02:10:36.791Z,22.04
2017-06-03T02:12:38.604Z,22.02
2017-06-03T02:14:42.011Z,22.06
2017-06-03T02:16:43.457Z,22.01
2017-06-03T02:18:44.913Z,22.02
2017-06-03T02:20:48.081Z,22.04
2017-06-03T02:22:49.442Z,22.04
2017-06-03T02:24:50.926Z,22.02
2017-06-03T02:26:52.876Z,22.06
2017-06-03T02:28:56.164Z,22.02
2017-06-03T02:30:57.492Z,22.07
2017-06-03T02:32:58.956Z,22.06
2017-06-03T02:35:02.453Z,22.06
2017-06-03T02:37:04.009Z,22.01
2017-06-03T02:39:05.461Z,22.12
2017-06-03T02:41:06.983Z,22.07
2017-06-03T02:43:08.868Z,22.02
2017-06-03T02:45:10.335Z,21.99
2017-06-03T02:47:11.808Z,22.04
2017-06-03T02:49:13.803Z,22.07
2017-06-03T02:51:15.838Z,22.01
2017-06-03T02:53:17.872Z,22.02
2017-06-03T02:55:19.896Z,21.99
2017-06-03T02:57:21.378Z,22.01
2017-06-03T02:59:24.469Z,21.95
2017-06-03T03:01:25.920Z,21.98
2017-06-03T03:03:28.252Z,21.97
2017-06-03T03:05:29.704Z,21.97
2017-06-03T03:07:31.182Z,21.97
2017-06-03T03:09:32.697Z,21.94
2017-06-03T03:11:35.755Z,21.98
2017-06-03T03:13:37.767Z,21.95
2017-06-03T03:15:40.886Z,21.98
2017-06-03T03:17:42.667Z,21.92
2017-06-03T03:19:44.135Z,21.91
2017-06-03T03:21:45.646Z,21.91
2017-06-03T03:23:47.168Z,21.90
2017-06-03T03:25:50.211Z,21.91
2017-06-03T03:27:51.602Z,21.87
2017-06-03T03:29:54.666Z,21.92
2017-06-03T03:31:56.628Z,21.82
2017-06-03T03:33:58.183Z,21.83
2017-06-03T03:36:01.678Z,21.85
2017-06-03T03:38:03.712Z,21.83
2017-06-03T03:40:05.175Z,21.94
2017-06-03T03:42:07.210Z,21.85
2017-06-03T03:44:08.725Z,21.90
2017-06-03T03:46:10.234Z,21.85
2017-06-03T03:48:12.270Z,21.81
2017-06-03T03:50:13.816Z,21.69
2017-06-03T03:52:16.912Z,21.83
2017-06-03T03:54:20.003Z,21.81
2017-06-03T03:56:21.461Z,21.72
2017-06-03T03:58:22.983Z,21.79
2017-06-03T04:00:24.458Z,21.81
2017-06-03T04:02:25.978Z,21.83
2017-06-03T04:04:27.465Z,21.82
2017-06-03T04:06:28.947Z,21.74
2017-06-03T04:08:30.407Z,21.82
2017-06-03T04:10:31.905Z,21.79
2017-06-03T04:12:33.842Z,21.81
2017-06-03T04:14:35.870Z,21.79
2017-06-03T04:16:37.915Z,21.82
2017-06-03T04:18:39.436Z,21.83
2017-06-03T04:20:40.923Z,21.69
2017-06-03T04:22:42.377Z,21.90
2017-06-03T04:24:44.403Z,21.85
2017-06-03T04:26:45.933Z,21.92
2017-06-03T04:28:48.994Z,21.94
2017-06-03T04:30:50.411Z,21.82
2017-06-03T04:32:52.476Z,21.78
2017-06-03T04:34:54.536Z,21.71
2017-06-03T04:36:56.539Z,21.74
2017-06-03T04:38:58.454Z,21.74
2017-06-03T04:41:00.512Z,21.74
2017-06-03T04:43:01.966Z,21.81
2017-06-03T04:45:03.415Z,21.75
2017-06-03T04:47:05.376Z,21.72
2017-06-03T04:49:06.824Z,21.74
2017-06-03T04:51:09.793Z,21.76
2017-06-03T04:53:11.808Z,21.71
2017-06-03T04:55:13.805Z,21.72
2017-06-03T04:57:15.320Z,21.75
2017-06-03T04:59:16.828Z,21.75
2017-06-03T05:01:18.354Z,21.66
2017-06-03T05:03:21.510Z,21.83
2017-06-03T05:05:23.080Z,21.81
2017-06-03T05:07:25.099Z,21.82
2017-06-03T05:09:26.605Z,21.71
2017-06-03T05:11:29.639Z,21.69
2017-06-03T05:13:31.173Z,21.75
2017-06-03T05:15:34.275Z,21.76
2017-06-03T05:17:35.734Z,21.74
2017-06-03T05:19:37.774Z,21.69
2017-06-03T05:21:39.378Z,21.56
2017-06-03T05:23:40.840Z,21.59
2017-06-03T05:25:42.298Z,21.57
2017-06-03T05:27:43.759Z,21.53
2017-06-03T05:29:45.209Z,21.53
2017-06-03T05:31:48.050Z,21.57
2017-06-03T05:33:50.070Z,21.59
2017-06-03T05:35:51.543Z,21.42
2017-06-03T05:37:53.036Z,21.44
2017-06-03T05:39:54.536Z,21.54
2017-06-03T05:41:56.617Z,21.54
2017-06-03T05:43:58.634Z,21.53
2017-06-03T05:46:01.119Z,21.50
2017-06-03T05:48:02.623Z,21.50
2017-06-03T05:50:04.808Z,21.57
2017-06-03T05:52:06.291Z,21.50
2017-06-03T05:54:08.701Z,21.56
2017-06-03T05:56:11.296Z,21.53
2017-06-03T05:58:13.873Z,21.36
2017-06-03T06:00:15.372Z,21.26
2017-06-03T06:02:16.868Z,21.34
2017-06-03T06:04:18.350Z,21.41
2017-06-03T06:06:20.935Z,21.32
2017-06-03T06:08:23.389Z,21.34
2017-06-03T06:10:24.834Z,21.34
2017-06-03T06:12:26.489Z,21.32
2017-06-03T06:14:28.786Z,21.30
2017-06-03T06:16:30.611Z,21.29
2017-06-03T06:18:34.236Z,21.24
2017-06-03T06:20:35.946Z,21.38
2017-06-03T06:22:37.533Z,21.39
2017-06-03T06:24:39.514Z,21.41
2017-06-03T06:26:41.083Z,21.38
2017-06-03T06:28:42.562Z,21.39
2017-06-03T06:30:44.578Z,21.44
2017-06-03T06:32:46.486Z,21.48
2017-06-03T06:34:48.140Z,21.46
2017-06-03T06:36:50.116Z,21.38
2017-06-03T06:38:52.535Z,21.29
2017-06-03T06:40:55.043Z,21.35
2017-06-03T06:42:57.158Z,21.41
2017-06-03T06:44:59.015Z,21.23
2017-06-03T06:47:00.520Z,21.21
2017-06-03T06:49:02.519Z,21.23
2017-06-03T06:51:03.992Z,21.08
2017-06-03T06:53:06.596Z,21.05
2017-06-03T06:55:08.058Z,21.06
2017-06-03T06:57:09.550Z,20.96
2017-06-03T06:59:11.427Z,20.99
2017-06-03T07:01:12.944Z,21.06
2017-06-03T07:03:14.474Z,20.95
2017-06-03T07:05:15.952Z,21.11
2017-06-03T07:07:17.850Z,21.09
2017-06-03T07:09:19.373Z,21.11
2017-06-03T07:11:20.851Z,21.05
2017-06-03T07:13:22.303Z,20.99
2017-06-03T07:15:23.779Z,21.06
2017-06-03T07:17:25.213Z,21.13
2017-06-03T07:19:27.201Z,21.08
2017-06-03T07:21:28.744Z,21.13
2017-06-03T07:23:30.232Z,21.19
2017-06-03T07:25:33.099Z,21.30
2017-06-03T07:27:34.582Z,21.19
2017-06-03T07:29:36.090Z,21.35
2017-06-03T07:31:38.358Z,21.35
2017-06-03T07:33:40.220Z,21.39
2017-06-03T07:35:42.103Z,21.41
2017-06-03T07:37:43.624Z,21.46
2017-06-03T07:39:45.585Z,21.54
2017-06-03T07:41:47.071Z,21.53
2017-06-03T07:43:48.535Z,21.67
2017-06-03T07:45:50.052Z,21.74
2017-06-03T07:47:52.038Z,21.78
2017-06-03T07:49:53.482Z,21.81
2017-06-03T07:51:56.987Z,21.83
2017-06-03T07:53:59.583Z,21.83
2017-06-03T07:56:01.018Z,21.90
2017-06-03T07:58:02.552Z,22.01
2017-06-03T08:00:04.066Z,22.09
2017-06-03T08:02:06.020Z,22.12
2017-06-03T08:04:08.965Z,22.27
2017-06-03T08:06:10.429Z,22.38
2017-06-03T08:08:11.915Z,22.32
2017-06-03T08:10:14.744Z,22.44
2017-06-03T08:12:17.776Z,22.49
2017-06-03T08:14:19.232Z,22.47
2017-06-03T08:16:20.710Z,22.74
2017-06-03T08:18:23.308Z,22.77
2017-06-03T08:20:26.083Z,22.82
2017-06-03T08:22:27.729Z,22.72
2017-06-03T08:24:29.201Z,22.89
2017-06-03T08:26:30.683Z,22.94
2017-06-03T08:28:33.206Z,23.15
2017-06-03T08:30:34.754Z,23.45
2017-06-03T08:32:37.814Z,23.62
2017-06-03T08:34:39.288Z,23.80
2017-06-03T08:36:40.834Z,23.89
2017-06-03T08:38:42.777Z,23.90
2017-06-03T08:40:45.493Z,23.86
2017-06-03T08:42:47.168Z,23.95
2017-06-03T08:44:49.170Z,24.01
2017-06-03T08:46:50.692Z,24.02
2017-06-03T08:48:52.209Z,24.05
2017-06-03T08:50:53.733Z,24.07
2017-06-03T08:52:56.649Z,24.08
2017-06-03T08:54:58.771Z,24.16
2017-06-03T08:57:00.314Z,24.32
2017-06-03T08:59:01.816Z,24.45
2017-06-03T09:01:04.661Z,24.68
2017-06-03T09:03:06.147Z,24.75
2017-06-03T09:05:08.156Z,24.90
2017-06-03T09:07:09.669Z,24.97
2017-06-03T09:09:11.205Z,25.15
2017-06-03T09:11:12.738Z,25.32
2017-06-03T09:13:14.210Z,25.50
2017-06-03T09:15:15.707Z,25.59
2017-06-03T09:17:17.197Z,25.64
2017-06-03T09:19:18.744Z,25.72
2017-06-03T09:21:20.768Z,25.71
2017-06-03T09:23:23.589Z,25.75
2017-06-03T09:25:25.433Z,26.01
2017-06-03T09:27:27.241Z,26.09
2017-06-03T09:29:29.213Z,26.25
2017-06-03T09:31:30.785Z,26.47
2017-06-03T09:33:33.115Z,26.49
2017-06-03T09:35:35.093Z,26.52
2017-06-03T09:37:37.779Z,26.57
2017-06-03T09:39:40.712Z,26.61
2017-06-03T09:41:42.222Z,26.72
2017-06-03T09:43:43.698Z,26.62
2017-06-03T09:45:45.287Z,26.64
2017-06-03T09:47:46.790Z,26.92
2017-06-03T09:49:48.335Z,27.09
2017-06-03T09:51:49.830Z,27.39
2017-06-03T09:53:52.464Z,27.39
2017-06-03T09:55:54.441Z,27.42
2017-06-03T09:57:56.424Z,27.50
2017-06-03T09:59:57.921Z,27.36
2017-06-03T10:02:00.495Z,27.20
2017-06-03T10:04:01.963Z,27.11
2017-06-03T10:06:03.916Z,27.04
2017-06-03T10:08:05.434Z,26.94
2017-06-03T10:10:08.016Z,26.87
2017-06-03T10:12:09.545Z,26.84
2017-06-03T10:14:11.015Z,26.86
2017-06-03T10:16:12.495Z,26.87
2017-06-03T10:18:14.452Z,26.81
2017-06-03T10:20:16.019Z,26.89
2017-06-03T10:22:17.729Z,26.95
2017-06-03T10:24:19.253Z,26.96
2017-06-03T10:26:21.786Z,26.95
2017-06-03T10:28:23.215Z,27.17
2017-06-03T10:30:25.184Z,27.32
2017-06-03T10:32:27.826Z,27.51
2017-06-03T10:34:30.326Z,27.59
2017-06-03T10:36:31.818Z,27.73
2017-06-03T10:38:33.288Z,27.84
2017-06-03T10:40:34.769Z,27.79
2017-06-03T10:42:36.829Z,27.76
2017-06-03T10:44:39.296Z,27.84
2017-06-03T10:46:41.596Z,27.92
2017-06-03T10:48:43.078Z,28.10
2017-06-03T10:50:45.528Z,28.01
2017-06-03T10:52:47.055Z,27.91
2017-06-03T10:54:49.928Z,27.88
2017-06-03T10:56:52.424Z,28.03
2017-06-03T10:58:56.082Z,28.29
2017-06-03T11:00:57.663Z,28.46
2017-06-03T11:02:59.217Z,28.43
2017-06-03T11:05:00.745Z,28.31
2017-06-03T11:07:02.246Z,28.59
2017-06-03T11:09:03.802Z,28.58
2017-06-03T11:11:05.768Z,28.59
2017-06-03T11:13:07.465Z,28.51
2017-06-03T11:15:10.196Z,28.60
2017-06-03T11:17:12.403Z,28.82
2017-06-03T11:19:13.982Z,28.66
2017-06-03T11:21:17.092Z,28.56
2017-06-03T11:23:18.745Z,28.72
2017-06-03T11:25:20.269Z,28.84
2017-06-03T11:27:21.781Z,28.81
2017-06-03T11:29:24.246Z,29.04
2017-06-03T11:31:25.905Z,29.03
2017-06-03T11:33:27.410Z,29.23
2017-06-03T11:35:29.562Z,29.22
2017-06-03T11:37:32.102Z,29.35
2017-06-03T11:39:34.287Z,29.50
2017-06-03T11:41:36.481Z,29.37
2017-06-03T11:43:38.421Z,29.43
2017-06-03T11:45:40.464Z,29.10
2017-06-03T11:47:41.991Z,29.07
2017-06-03T11:49:43.998Z,28.84
2017-06-03T11:51:45.507Z,28.77
2017-06-03T11:53:46.992Z,28.82
2017-06-03T11:55:49.345Z,28.75
2017-06-03T11:57:50.776Z,28.60
2017-06-03T11:59:52.918Z,28.51
2017-06-03T12:01:54.434Z,28.36
2017-06-03T12:03:55.952Z,28.26
2017-06-03T12:05:57.796Z,28.11
2017-06-03T12:08:00.109Z,28.21
2017-06-03T12:10:01.614Z,28.10
2017-06-03T12:12:03.125Z,28.28
2017-06-03T12:14:05.646Z,28.47
2017-06-03T12:16:07.214Z,28.33
2017-06-03T12:18:09.091Z,28.23
2017-06-03T12:20:11.748Z,28.22
2017-06-03T12:22:13.663Z,28.17
2017-06-03T12:24:15.997Z,28.16
2017-06-03T12:26:18.387Z,28.01
2017-06-03T12:28:19.946Z,27.94
2017-06-03T12:30:22.685Z,28.01
2017-06-03T12:32:24.240Z,27.82
2017-06-03T12:34:25.771Z,27.70
2017-06-03T12:36:28.346Z,27.96
2017-06-03T12:38:29.923Z,28.06
2017-06-03T12:40:31.428Z,27.96
2017-06-03T12:42:33.596Z,27.86
2017-06-03T12:44:35.658Z,27.92
2017-06-03T12:46:38.757Z,27.71
2017-06-03T12:48:40.274Z,27.66
2017-06-03T12:50:41.776Z,27.76
2017-06-03T12:52:44.632Z,27.77
2017-06-03T12:54:47.415Z,27.82
2017-06-03T12:56:50.061Z,27.82
2017-06-03T12:58:52.033Z,27.71
2017-06-03T13:00:53.564Z,27.54
2017-06-03T13:02:55.062Z,27.43
2017-06-03T13:04:56.609Z,27.32
2017-06-03T13:06:59.136Z,27.32
2017-06-03T13:09:01.645Z,27.14
2017-06-03T13:11:03.165Z,26.98
2017-06-03T13:13:04.689Z,26.99
2017-06-03T13:15:07.204Z,27.02
2017-06-03T13:17:08.748Z,27.09
2017-06-03T13:19:10.893Z,27.09
2017-06-03T13:21:12.359Z,27.13
2017-06-03T13:23:15.170Z,27.02
2017-06-03T13:25:17.653Z,26.99
2017-06-03T13:27:19.193Z,27.10
2017-06-03T13:29:20.724Z,26.98
2017-06-03T13:31:22.870Z,26.91
2017-06-03T13:33:25.637Z,26.80
2017-06-03T13:35:27.210Z,26.86
2017-06-03T13:37:29.169Z,26.79
2017-06-03T13:39:31.569Z,26.81
2017-06-03T13:41:33.103Z,26.74
2017-06-03T13:43:34.622Z,26.79
2017-06-03T13:45:36.141Z,26.64
2017-06-03T13:47:37.633Z,26.55
2017-06-03T13:49:39.823Z,26.49
2017-06-03T13:51:41.334Z,26.40
2017-06-03T13:53:43.574Z,26.43
2017-06-03T13:55:46.213Z,26.28
2017-06-03T13:57:47.713Z,26.32
2017-06-03T13:59:50.368Z,26.22
2017-06-03T14:01:52.922Z,26.31
2017-06-03T14:03:54.583Z,26.35
2017-06-03T14:05:57.118Z,26.27
2017-06-03T14:07:59.747Z,26.32
2017-06-03T14:10:01.274Z,26.22
2017-06-03T14:12:03.425Z,26.08
2017-06-03T14:14:06.272Z,26.08
2017-06-03T14:16:07.780Z,25.99
2017-06-03T14:18:09.258Z,26.01
2017-06-03T14:20:12.081Z,25.94
2017-06-03T14:22:13.610Z,25.91
2017-06-03T14:24:15.094Z,25.80
2017-06-03T14:26:16.597Z,25.87
2017-06-03T14:28:18.746Z,25.65
2017-06-03T14:30:20.348Z,25.68
2017-06-03T14:32:22.844Z,25.61
2017-06-03T14:34:24.414Z,25.50
2017-06-03T14:36:26.872Z,25.39
2017-06-03T14:38:29.432Z,25.39
2017-06-03T14:40:30.876Z,25.34
2017-06-03T14:42:33.547Z,25.00
2017-06-03T14:44:35.179Z,24.79
2017-06-03T14:46:37.188Z,24.71
2017-06-03T14:48:38.703Z,24.42
2017-06-03T14:50:40.179Z,24.35
2017-06-03T14:52:42.847Z,24.37
2017-06-03T14:54:44.273Z,24.47
2017-06-03T14:56:45.769Z,24.50
2017-06-03T14:58:47.283Z,24.47
2017-06-03T15:00:48.792Z,24.54
2017-06-03T15:02:50.281Z,24.52
2017-06-03T15:04:51.790Z,24.52
2017-06-03T15:06:53.282Z,24.50
2017-06-03T15:08:55.776Z,24.75
2017-06-03T15:10:57.337Z,24.91
2017-06-03T15:12:58.839Z,24.98
2017-06-03T15:15:00.351Z,25.02
2017-06-03T15:17:01.821Z,25.07
2017-06-03T15:19:03.331Z,25.06
2017-06-03T15:21:06.120Z,25.06
2017-06-03T15:23:07.684Z,25.01
2017-06-03T15:25:09.540Z,25.24
2017-06-03T15:27:11.080Z,25.20
2017-06-03T15:29:12.738Z,25.22
2017-06-03T15:31:15.357Z,25.16
2017-06-03T15:33:17.563Z,25.01
2017-06-03T15:35:19.730Z,25.17
2017-06-03T15:37:21.749Z,25.10
2017-06-03T15:39:23.291Z,25.02
2017-06-03T15:41:24.755Z,25.01
2017-06-03T15:43:26.243Z,24.88
2017-06-03T15:45:29.263Z,24.92
2017-06-03T15:47:30.673Z,24.92
2017-06-03T15:49:32.161Z,24.88
2017-06-03T15:51:33.678Z,24.90
2017-06-03T15:53:35.778Z,24.98
2017-06-03T15:55:37.658Z,24.92
2017-06-03T15:57:40.052Z,25.02
2017-06-03T15:59:41.567Z,25.05
2017-06-03T16:01:44.244Z,25.15
2017-06-03T16:03:46.796Z,25.17
2017-06-03T16:05:49.365Z,25.25
2017-06-03T16:07:51.982Z,25.31
2017-06-03T16:09:53.975Z,25.34
2017-06-03T16:11:55.454Z,25.34
2017-06-03T16:13:56.990Z,25.46
2017-06-03T16:15:58.679Z,25.46
2017-06-03T16:18:00.796Z,25.52
2017-06-03T16:20:02.296Z,25.38
2017-06-03T16:22:03.814Z,25.31
2017-06-03T16:24:05.767Z,25.37
2017-06-03T16:26:08.477Z,25.28
2017-06-03T16:28:10.053Z,25.31
2017-06-03T16:30:11.583Z,25.19
2017-06-03T16:32:13.109Z,25.17
2017-06-03T16:34:14.557Z,25.22
2017-06-03T16:36:16.705Z,25.20
2017-06-03T16:38:18.186Z,25.19
2017-06-03T16:40:20.271Z,25.17
2017-06-03T16:42:21.791Z,25.13
2017-06-03T16:44:24.730Z,25.09
2017-06-03T16:46:26.186Z,25.12
2017-06-03T16:48:28.977Z,25.19
2017-06-03T16:50:30.577Z,25.13
2017-06-03T16:52:32.048Z,25.10
2017-06-03T16:54:33.531Z,25.05
2017-06-03T16:56:36.276Z,24.91
2017-06-03T16:58:38.294Z,24.90
2017-06-03T17:00:40.349Z,24.90
2017-06-03T17:02:42.324Z,24.91
2017-06-03T17:04:43.847Z,24.90
2017-06-03T17:06:45.306Z,24.85
2017-06-03T17:08:46.813Z,24.94
2017-06-03T17:10:49.502Z,24.92
2017-06-03T17:12:50.977Z,24.95
2017-06-03T17:14:52.448Z,24.88
2017-06-03T17:16:53.925Z,24.91
2017-06-03T17:18:56.568Z,24.88
2017-06-03T17:20:58.115Z,24.90
2017-06-03T17:23:00.151Z,24.97
2017-06-03T17:25:02.282Z,24.90
2017-06-03T17:27:04.298Z,24.90
2017-06-03T17:29:06.321Z,24.91
2017-06-03T17:31:07.806Z,24.80
2017-06-03T17:33:10.819Z,24.67
2017-06-03T17:35:12.179Z,24.67
2017-06-03T17:37:14.118Z,24.64
2017-06-03T17:39:16.071Z,24.61
2017-06-03T17:41:17.602Z,24.68
2017-06-03T17:43:19.069Z,24.53
2017-06-03T17:45:22.079Z,24.63
2017-06-03T17:47:23.475Z,24.54
2017-06-03T17:49:24.949Z,24.49
2017-06-03T17:51:27.636Z,24.49
2017-06-03T17:53:29.214Z,24.61
2017-06-03T17:55:31.954Z,24.64
2017-06-03T17:57:34.801Z,24.56
2017-06-03T17:59:37.319Z,24.50
2017-06-03T18:01:40.196Z,24.39
2017-06-03T18:03:42.838Z,24.38
2017-06-03T18:05:44.285Z,24.52
2017-06-03T18:07:45.765Z,24.47
2017-06-03T18:09:47.238Z,24.53
2017-06-03T18:11:48.750Z,24.59
2017-06-03T18:13:50.684Z,24.56
2017-06-03T18:15:53.426Z,24.45
2017-06-03T18:17:55.016Z,24.45
2017-06-03T18:19:56.494Z,24.44
2017-06-03T18:21:57.999Z,24.45
2017-06-03T18:23:59.994Z,24.50
2017-06-03T18:26:01.989Z,24.59
2017-06-03T18:28:03.473Z,24.50
2017-06-03T18:30:05.526Z,24.54
2017-06-03T18:32:07.617Z,24.57
2017-06-03T18:34:09.174Z,24.52
2017-06-03T18:36:10.674Z,24.50
2017-06-03T18:38:12.737Z,24.50
2017-06-03T18:40:14.178Z,24.38
2017-06-03T18:42:15.694Z,24.31
2017-06-03T18:44:17.547Z,24.12
2017-06-03T18:46:19.061Z,24.13
2017-06-03T18:48:20.502Z,23.85
2017-06-03T18:50:22.324Z,23.79
2017-06-03T18:52:23.720Z,23.68
2017-06-03T18:54:25.199Z,23.65
2017-06-03T18:56:27.304Z,23.55
2017-06-03T18:58:28.809Z,23.53
2017-06-03T19:00:30.795Z,23.49
2017-06-03T19:02:32.317Z,23.32
2017-06-03T19:04:33.786Z,23.39
2017-06-03T19:06:35.674Z,23.29
2017-06-03T19:08:37.167Z,23.31
2017-06-03T19:10:39.121Z,23.32
2017-06-03T19:12:40.647Z,23.31
2017-06-03T19:14:42.668Z,23.29
2017-06-03T19:16:44.205Z,23.26
2017-06-03T19:18:45.673Z,23.23
2017-06-03T19:20:47.881Z,23.19
2017-06-03T19:22:49.877Z,23.19
2017-06-03T19:24:52.029Z,23.15
2017-06-03T19:26:54.193Z,23.09
2017-06-03T19:28:55.697Z,23.08
2017-06-03T19:30:57.205Z,22.99
2017-06-03T19:32:59.320Z,23.09
2017-06-03T19:35:01.349Z,23.02
2017-06-03T19:37:03.466Z,23.01
2017-06-03T19:39:04.959Z,22.97
2017-06-03T19:41:06.439Z,22.87
2017-06-03T19:43:07.961Z,22.83
2017-06-03T19:45:09.429Z,22.84
2017-06-03T19:47:10.897Z,22.82
2017-06-03T19:49:12.924Z,22.80
2017-06-03T19:51:14.910Z,22.78
2017-06-03T19:53:16.967Z,22.82
2017-06-03T19:55:18.964Z,22.75
2017-06-03T19:57:20.513Z,22.74
2017-06-03T19:59:22.482Z,22.75
2017-06-03T20:01:23.955Z,22.69
2017-06-03T20:03:25.465Z,22.71
2017-06-03T20:05:26.952Z,22.65
2017-06-03T20:07:28.424Z,22.53
2017-06-03T20:09:30.170Z,22.53
2017-06-03T20:11:31.608Z,22.44
2017-06-03T20:13:33.560Z,22.52
2017-06-03T20:15:35.040Z,22.49
2017-06-03T20:17:37.105Z,22.50
2017-06-03T20:19:38.515Z,22.54
2017-06-03T20:21:39.941Z,22.54
2017-06-03T20:23:41.939Z,22.50
2017-06-03T20:25:44.061Z,22.52
2017-06-03T20:27:45.509Z,22.44
2017-06-03T20:29:46.940Z,22.41
2017-06-03T20:31:48.373Z,22.38
2017-06-03T20:33:50.354Z,22.38
2017-06-03T20:35:52.373Z,22.29
2017-06-03T20:37:53.887Z,22.44
2017-06-03T20:39:55.791Z,22.27
2017-06-03T20:41:57.775Z,22.13
2017-06-03T20:43:59.297Z,21.97
2017-06-03T20:46:01.358Z,21.81
2017-06-03T20:48:03.254Z,21.90
2017-06-03T20:50:04.768Z,21.92
2017-06-03T20:52:06.242Z,21.83
2017-06-03T20:54:07.677Z,21.92
2017-06-03T20:56:09.680Z,21.87
2017-06-03T20:58:11.189Z,21.90
2017-06-03T21:00:12.645Z,21.90
2017-06-03T21:02:14.607Z,21.79
2017-06-03T21:04:16.650Z,21.72
2017-06-03T21:06:18.730Z,21.76
2017-06-03T21:08:20.713Z,21.69
2017-06-03T21:10:22.159Z,21.59
2017-06-03T21:12:24.203Z,21.54
2017-06-03T21:14:26.272Z,21.59
2017-06-03T21:16:27.716Z,21.57
2017-06-03T21:18:29.845Z,21.67
2017-06-03T21:20:31.361Z,21.59
2017-06-03T21:22:33.459Z,21.67
2017-06-03T21:24:35.615Z,21.66
2017-06-03T21:26:37.100Z,21.60
2017-06-03T21:28:38.579Z,21.61
2017-06-03T21:30:40.044Z,21.57
2017-06-03T21:32:41.518Z,21.56
2017-06-03T21:34:43.624Z,21.60
2017-06-03T21:36:45.942Z,21.61
2017-06-03T21:38:48.102Z,21.57
2017-06-03T21:40:50.272Z,21.69
2017-06-03T21:42:52.494Z,21.53
2017-06-03T21:44:53.950Z,21.61
2017-06-03T21:46:55.450Z,21.56
2017-06-03T21:48:57.408Z,21.63
2017-06-03T21:50:58.907Z,21.56
2017-06-03T21:53:00.352Z,21.59
2017-06-03T21:55:02.440Z,21.56
2017-06-03T21:57:03.957Z,21.57
2017-06-03T21:59:06.280Z,21.59
2017-06-03T22:01:07.718Z,21.44
2017-06-03T22:03:10.058Z,21.57
2017-06-03T22:05:11.585Z,21.44
2017-06-03T22:07:13.656Z,21.48
2017-06-03T22:09:15.519Z,21.50
2017-06-03T22:11:17.012Z,21.50
2017-06-03T22:13:19.151Z,21.51
2017-06-03T22:15:21.377Z,21.44
2017-06-03T22:17:23.327Z,21.46
2017-06-03T22:19:24.776Z,21.36
2017-06-03T22:21:26.252Z,21.34
2017-06-03T22:23:27.717Z,21.41
2017-06-03T22:25:29.150Z,21.35
2017-06-03T22:27:31.434Z,21.29
2017-06-03T22:29:33.775Z,21.24
2017-06-03T22:31:35.275Z,21.21
2017-06-03T22:33:36.704Z,21.19
2017-06-03T22:35:38.414Z,21.17
2017-06-03T22:37:39.851Z,21.23
2017-06-03T22:39:41.285Z,21.27
2017-06-03T22:41:42.715Z,21.19
2017-06-03T22:43:44.170Z,21.08
2017-06-03T22:45:45.578Z,21.08
2017-06-03T22:47:47.012Z,21.09
2017-06-03T22:49:49.401Z,21.06
2017-06-03T22:51:50.866Z,20.98
2017-06-03T22:53:52.720Z,20.93
2017-06-03T22:55:54.131Z,20.93
2017-06-03T22:57:55.976Z,20.89
2017-06-03T22:59:58.023Z,20.89
2017-06-03T23:01:59.566Z,20.95
2017-06-03T23:04:01.244Z,20.93
2017-06-03T23:06:03.680Z,20.83
2017-06-03T23:08:05.139Z,20.93
2017-06-03T23:10:06.589Z,20.90
2017-06-03T23:12:08.073Z,20.86
2017-06-03T23:14:10.367Z,20.91
2017-06-03T23:16:11.848Z,20.89
2017-06-03T23:18:14.014Z,20.86
2017-06-03T23:20:15.486Z,20.86
2017-06-03T23:22:17.508Z,20.79
2017-06-03T23:24:18.982Z,20.76
2017-06-03T23:26:21.174Z,20.72
2017-06-03T23:28:23.222Z,20.74
2017-06-03T23:30:25.141Z,20.68
2017-06-03T23:32:26.664Z,20.58
2017-06-03T23:34:28.820Z,20.64
2017-06-03T23:36:30.281Z,20.69
2017-06-03T23:38:32.405Z,20.65
2017-06-03T23:40:33.876Z,20.61
2017-06-03T23:42:35.817Z,20.59
2017-06-03T23:44:37.331Z,20.54
2017-06-03T23:46:38.790Z,20.50
2017-06-03T23:48:40.292Z,20.53
2017-06-03T23:50:41.803Z,20.47
2017-06-03T23:52:44.167Z,20.47
2017-06-03T23:54:46.249Z,20.50
2017-06-03T23:56:47.706Z,20.49
2017-06-03T23:58:49.158Z,20.47
